createdAt,value
2022-08-10T05:02:28.101Z,10.82
2022-08-10T05:04:56.365Z,10.97
2022-08-10T05:07:24.173Z,11.09
2022-08-10T05:10:03.787Z,11.19
2022-08-10T05:12:35.947Z,11.29
2022-08-10T05:15:06.859Z,11.36
2022-08-10T05:17:36.859Z,11.44
2022-08-10T05:20:06.709Z,11.54
2022-08-10T05:22:40.738Z,11.68
2022-08-10T05:25:11.257Z,11.82
2022-08-10T05:27:40.286Z,11.95
2022-08-10T05:30:10.361Z,12.05
2022-08-10T05:32:55.559Z,12.15
2022-08-10T05:35:26.169Z,12.26
2022-08-10T05:38:10.561Z,12.33
2022-08-10T05:40:46.807Z,12.42
2022-08-10T05:43:17.765Z,12.58
2022-08-10T05:46:18.903Z,12.74
2022-08-10T05:48:54.321Z,12.96
2022-08-10T05:51:24.558Z,13.17
2022-08-10T05:54:02.378Z,13.35
2022-08-10T05:56:54.061Z,13.49
2022-08-10T06:00:33.200Z,13.68
2022-08-10T06:02:41.704Z,13.92
2022-08-10T06:05:06.620Z,14.07
2022-08-10T06:07:38.427Z,14.31
2022-08-10T06:10:10.237Z,14.45
2022-08-10T06:12:54.192Z,14.62
2022-08-10T06:15:52.182Z,14.81
2022-08-10T06:18:14.395Z,15.06
2022-08-10T06:20:43.951Z,15.23
2022-08-10T06:23:13.385Z,15.39
2022-08-10T06:26:11.091Z,15.46
2022-08-10T06:28:33.762Z,15.62
2022-08-10T06:31:02.990Z,15.83
2022-08-10T06:33:33.123Z,16.05
2022-08-10T06:36:04.270Z,16.21
2022-08-10T06:38:34.787Z,16.29
2022-08-10T06:41:16.742Z,16.46
2022-08-10T06:43:56.845Z,16.61
2022-08-10T06:46:26.303Z,16.77
2022-08-10T06:48:56.618Z,17.03
2022-08-10T06:51:28.853Z,17.15
2022-08-10T06:54:00.883Z,17.26
2022-08-10T06:56:37.423Z,17.42
2022-08-10T06:59:13.307Z,17.53
2022-08-10T07:01:54.317Z,17.77
2022-08-10T07:04:32.404Z,17.88
2022-08-10T07:07:06.435Z,17.95
2022-08-10T07:09:37.731Z,18.06
2022-08-10T07:12:09.167Z,18.16
2022-08-10T07:14:43.995Z,18.36
2022-08-10T07:17:16.608Z,18.48
2022-08-10T07:19:50.263Z,18.61
2022-08-10T07:23:08.738Z,18.72
2022-08-10T07:25:15.985Z,18.86
2022-08-10T07:28:00.129Z,18.96
2022-08-10T07:30:30.696Z,19.07
2022-08-10T07:33:01.141Z,19.17
2022-08-10T07:35:37.300Z,19.34
2022-08-10T07:38:18.920Z,19.54
2022-08-10T07:40:48.659Z,19.71
2022-08-10T07:43:18.070Z,19.76
2022-08-10T07:45:47.526Z,19.89
2022-08-10T07:48:18.022Z,19.98
2022-08-10T07:50:47.411Z,20.07
2022-08-10T07:53:22.657Z,20.18
2022-08-10T07:56:02.143Z,20.20
2022-08-10T07:58:39.434Z,20.36
2022-08-10T08:01:16.660Z,20.46
2022-08-10T08:04:05.614Z,20.66
2022-08-10T08:06:37.631Z,20.83
2022-08-10T08:09:07.247Z,20.90
2022-08-10T08:11:37.145Z,21.02
2022-08-10T08:14:07.016Z,21.07
2022-08-10T08:16:36.513Z,21.04
2022-08-10T08:24:06.309Z,21.27
2022-08-10T08:24:45.303Z,21.33
2022-08-10T08:27:16.720Z,21.46
2022-08-10T08:29:47.402Z,21.49
2022-08-10T08:32:18.907Z,21.52
2022-08-10T08:34:48.297Z,21.53
2022-08-10T08:38:31.941Z,21.76
2022-08-10T08:40:12.410Z,21.83
2022-08-10T08:43:05.947Z,22.09
2022-08-10T08:45:54.068Z,22.21
2022-08-10T08:48:47.506Z,22.40
2022-08-10T08:52:08.166Z,22.44
2022-08-10T08:54:32.918Z,22.37
2022-08-10T08:57:09.140Z,22.61
2022-08-10T08:59:51.358Z,22.48
2022-08-10T09:02:35.078Z,22.52
2022-08-10T09:05:24.261Z,22.79
2022-08-10T09:08:14.094Z,22.61
2022-08-10T09:10:51.547Z,22.74
2022-08-10T09:13:29.316Z,22.71
2022-08-10T09:16:07.044Z,22.72
2022-08-10T09:18:43.075Z,22.86
2022-08-10T09:21:18.465Z,23.04
2022-08-10T09:24:04.171Z,23.11
2022-08-10T09:26:43.859Z,23.05
2022-08-10T09:29:17.627Z,23.28
2022-08-10T09:33:05.833Z,23.48
2022-08-10T09:36:20.692Z,23.72
2022-08-10T09:38:01.948Z,24.02
2022-08-10T09:41:01.056Z,24.19
2022-08-10T09:43:32.323Z,23.98
2022-08-10T09:46:12.135Z,24.13
2022-08-10T09:48:48.637Z,24.27
2022-08-10T09:51:47.057Z,24.56
2022-08-10T09:54:29.458Z,24.70
2022-08-10T09:57:44.576Z,24.63
2022-08-10T10:00:03.038Z,24.80
2022-08-10T10:02:43.183Z,24.87
2022-08-10T10:05:30.868Z,25.04
2022-08-10T10:08:07.031Z,25.00
2022-08-10T10:10:47.572Z,25.19
2022-08-10T10:13:41.726Z,25.11
2022-08-10T10:16:37.663Z,25.23
2022-08-10T10:19:19.648Z,25.40
2022-08-10T10:21:54.378Z,25.67
2022-08-10T10:24:34.167Z,25.61
2022-08-10T10:27:15.952Z,25.76
2022-08-10T10:29:57.048Z,25.38
2022-08-10T10:32:39.244Z,25.41
2022-08-10T10:35:17.629Z,25.22
2022-08-10T10:38:02.863Z,25.30
2022-08-10T10:40:39.726Z,25.15
2022-08-10T10:43:16.701Z,24.81
2022-08-10T10:45:57.467Z,25.08
2022-08-10T10:48:34.026Z,25.40
2022-08-10T10:51:13.581Z,25.47
2022-08-10T10:53:47.125Z,25.33
2022-08-10T10:56:21.529Z,25.29
2022-08-10T10:58:59.808Z,25.66
2022-08-10T11:01:45.969Z,25.63
2022-08-10T11:04:24.192Z,25.97
2022-08-10T11:07:00.729Z,26.42
2022-08-10T11:10:09.242Z,26.09
2022-08-10T11:12:30.432Z,25.81
2022-08-10T11:15:04.741Z,25.77
2022-08-10T11:17:39.724Z,26.08
2022-08-10T11:20:15.806Z,26.01
2022-08-10T11:22:52.679Z,26.12
2022-08-10T11:25:27.437Z,25.87
2022-08-10T11:28:01.759Z,25.78
2022-08-10T11:30:40.995Z,26.15
2022-08-10T11:33:15.544Z,26.43
2022-08-10T11:36:04.088Z,26.35
2022-08-10T11:38:57.593Z,26.01
2022-08-10T11:42:09.205Z,26.58
2022-08-10T11:44:32.099Z,26.77
2022-08-10T11:47:05.922Z,26.86
2022-08-10T11:49:38.911Z,26.28
2022-08-10T11:52:14.428Z,26.23
2022-08-10T11:57:16.897Z,25.57
2022-08-10T12:00:00.988Z,25.76
2022-08-10T12:02:33.936Z,25.97
2022-08-10T12:05:07.521Z,25.57
2022-08-10T12:10:07.578Z,25.56
2022-08-10T12:10:30.504Z,25.61
2022-08-10T12:13:05.941Z,25.59
2022-08-10T12:15:35.713Z,25.74
2022-08-10T12:18:13.772Z,25.87
2022-08-10T12:20:44.906Z,26.00
2022-08-10T12:23:18.345Z,25.81
2022-08-10T12:25:57.831Z,26.05
2022-08-10T12:28:50.723Z,26.10
2022-08-10T12:31:25.234Z,26.08
2022-08-10T12:34:04.589Z,26.09
2022-08-10T12:36:37.909Z,25.87
2022-08-10T12:39:13.502Z,25.62
2022-08-10T12:41:49.595Z,25.40
2022-08-10T12:44:23.389Z,25.58
2022-08-10T12:47:17.561Z,25.78
2022-08-10T12:50:29.441Z,25.76
2022-08-10T12:52:45.257Z,25.66
2022-08-10T12:55:14.639Z,25.42
2022-08-10T12:57:44.999Z,25.33
2022-08-10T13:00:17.684Z,25.46
2022-08-10T13:02:49.187Z,25.62
2022-08-10T13:05:18.534Z,25.51
2022-08-10T13:08:24.958Z,25.20
2022-08-10T13:10:45.399Z,25.26
2022-08-10T13:13:15.817Z,25.25
2022-08-10T13:15:50.782Z,25.34
2022-08-10T13:18:27.230Z,25.32
2022-08-10T13:21:00.640Z,25.27
2022-08-10T13:23:30.924Z,25.36
2022-08-10T13:26:01.902Z,25.50
2022-08-10T13:28:43.298Z,25.49
2022-08-10T13:31:18.294Z,25.45
2022-08-10T13:34:36.544Z,25.37
2022-08-10T13:36:41.479Z,25.34
2022-08-10T13:39:10.106Z,25.26
2022-08-10T13:41:40.874Z,25.14
2022-08-10T13:44:12.507Z,25.09
2022-08-10T13:46:42.312Z,25.03
2022-08-10T13:49:12.119Z,25.09
2022-08-10T13:51:56.687Z,25.14
2022-08-10T13:54:29.296Z,25.14
2022-08-10T13:56:57.825Z,25.32
2022-08-10T14:00:34.231Z,25.35
2022-08-10T14:02:25.130Z,25.32
2022-08-10T14:04:55.723Z,25.22
2022-08-10T14:07:25.067Z,25.29
2022-08-10T14:09:54.812Z,25.63
2022-08-10T14:12:33.404Z,25.61
2022-08-10T14:15:14.482Z,25.50
2022-08-10T14:17:45.082Z,25.34
2022-08-10T14:20:19.318Z,25.32
2022-08-10T14:22:49.468Z,25.29
2022-08-10T14:25:17.292Z,25.19
2022-08-10T14:28:03.072Z,25.11
2022-08-10T14:30:35.192Z,25.14
2022-08-10T14:33:04.844Z,25.23
2022-08-10T14:36:19.739Z,25.22
2022-08-10T14:38:28.691Z,25.17
2022-08-10T14:40:59.858Z,25.12
2022-08-10T14:43:29.746Z,25.16
2022-08-10T14:46:03.613Z,25.22
2022-08-10T14:48:39.250Z,25.21
2022-08-10T14:51:08.734Z,25.14
2022-08-10T14:53:38.584Z,25.16
2022-08-10T14:56:09.642Z,25.14
2022-08-10T14:58:59.245Z,25.08
2022-08-10T15:02:00.001Z,25.06
2022-08-10T15:04:24.446Z,25.07
2022-08-10T15:06:54.898Z,25.15
2022-08-10T15:09:26.458Z,25.11
2022-08-10T15:12:15.901Z,25.11
2022-08-10T15:14:46.433Z,25.19
2022-08-10T15:17:24.134Z,25.21
2022-08-10T15:20:02.423Z,25.07
2022-08-10T15:22:41.386Z,25.06
2022-08-10T15:25:19.105Z,25.00
2022-08-10T15:27:55.701Z,24.95
2022-08-10T15:30:32.107Z,24.99
2022-08-10T15:33:57.626Z,24.96
2022-08-10T15:36:33.934Z,24.97
2022-08-10T15:39:05.041Z,25.07
2022-08-10T15:41:58.017Z,25.09
2022-08-10T15:44:38.232Z,25.06
2022-08-10T15:47:10.247Z,25.19
2022-08-10T15:49:46.245Z,25.12
2022-08-10T15:52:40.127Z,25.10
2022-08-10T15:55:43.571Z,25.09
2022-08-10T15:58:06.773Z,25.18
2022-08-10T16:00:39.709Z,25.17
2022-08-10T16:03:14.541Z,25.15
2022-08-10T16:06:00.307Z,25.37
2022-08-10T16:08:56.441Z,25.38
2022-08-10T16:11:37.588Z,25.45
2022-08-10T16:14:13.996Z,25.45
2022-08-10T16:16:44.986Z,25.45
2022-08-10T16:19:23.771Z,25.39
2022-08-10T16:21:58.063Z,25.51
2022-08-10T16:24:28.257Z,25.55
2022-08-10T16:26:57.087Z,25.58
2022-08-10T16:29:26.988Z,25.74
2022-08-10T16:31:57.398Z,25.70
2022-08-10T16:34:28.246Z,25.78
2022-08-10T16:37:00.729Z,25.76
2022-08-10T16:39:59.769Z,25.87
2022-08-10T16:42:23.153Z,26.03
2022-08-10T16:44:58.901Z,26.46
2022-08-10T16:47:29.612Z,26.96
2022-08-10T16:50:01.142Z,27.25
2022-08-10T16:52:32.840Z,27.84
2022-08-10T16:55:08.480Z,28.21
2022-08-10T16:57:56.892Z,29.34
2022-08-10T17:00:26.904Z,30.11
2022-08-10T17:02:59.380Z,30.57
2022-08-10T17:06:03.668Z,30.30
2022-08-10T17:08:21.700Z,30.79
2022-08-10T17:10:52.026Z,32.94
2022-08-10T17:13:23.723Z,34.99
2022-08-10T17:15:57.355Z,36.18
2022-08-10T17:18:30.535Z,35.44
2022-08-10T17:21:00.816Z,33.80
2022-08-10T17:23:34.610Z,31.53
2022-08-10T17:26:08.147Z,29.35
2022-08-10T17:28:39.863Z,27.97
2022-08-10T17:31:23.776Z,26.76
2022-08-10T17:33:54.720Z,25.84
2022-08-10T17:36:25.454Z,25.08
2022-08-10T17:38:54.775Z,24.55
2022-08-10T17:41:28.586Z,24.22
2022-08-10T17:44:03.139Z,23.94
2022-08-10T17:46:35.666Z,23.77
2022-08-10T17:49:08.651Z,23.56
2022-08-10T17:51:39.265Z,23.26
2022-08-10T17:54:16.057Z,23.11
2022-08-10T17:56:44.164Z,23.06
2022-08-10T17:59:17.429Z,22.94
2022-08-10T18:01:59.097Z,22.82
2022-08-10T18:04:35.604Z,22.67
2022-08-10T18:07:11.747Z,22.60
2022-08-10T18:09:45.521Z,22.55
2022-08-10T18:12:17.795Z,22.42
2022-08-10T18:14:47.827Z,22.29
2022-08-10T18:17:19.952Z,22.20
2022-08-10T18:19:53.079Z,22.13
2022-08-10T18:22:22.286Z,21.99
2022-08-10T18:24:52.864Z,21.97
2022-08-10T18:27:22.406Z,21.85
2022-08-10T18:30:11.905Z,21.78
2022-08-10T18:32:42.778Z,21.67
2022-08-10T18:35:12.801Z,21.56
2022-08-10T18:37:42.534Z,21.43
2022-08-10T18:40:12.280Z,21.31
2022-08-10T18:42:46.218Z,21.16
2022-08-10T18:45:16.630Z,21.01
2022-08-10T18:47:59.543Z,20.93
2022-08-10T18:50:31.937Z,20.79
2022-08-10T18:53:02.553Z,20.68
2022-08-10T18:55:35.545Z,20.56
2022-08-10T18:58:41.777Z,20.39
2022-08-10T19:01:30.232Z,20.26
2022-08-10T19:04:14.497Z,20.21
2022-08-10T19:07:05.291Z,20.07
2022-08-10T19:09:48.284Z,19.99
2022-08-10T19:12:37.018Z,19.88
2022-08-10T19:15:27.047Z,19.83
2022-08-10T19:18:08.690Z,19.71
2022-08-10T19:20:42.410Z,19.60
2022-08-10T19:23:31.186Z,19.46
2022-08-10T19:26:42.325Z,19.37
2022-08-10T19:29:04.297Z,19.27
2022-08-10T19:31:44.507Z,19.17
2022-08-10T19:34:34.445Z,19.10
2022-08-10T19:37:11.121Z,18.96
2022-08-10T19:40:03.653Z,18.91
2022-08-10T19:42:42.501Z,18.87
2022-08-10T19:46:01.355Z,18.84
2022-08-10T19:48:17.089Z,18.68
2022-08-10T19:50:54.425Z,18.58
2022-08-10T19:53:32.416Z,18.55
2022-08-10T19:56:32.561Z,18.45
2022-08-10T20:00:14.986Z,18.32
2022-08-10T20:02:19.053Z,18.26
2022-08-10T20:04:57.842Z,18.18
2022-08-10T20:07:35.194Z,18.12
2022-08-10T20:10:08.818Z,18.07
2022-08-10T20:12:44.196Z,18.02
2022-08-10T20:15:22.207Z,17.87
2022-08-10T20:17:58.162Z,17.81
2022-08-10T20:20:31.836Z,17.70
2022-08-10T20:23:12.240Z,17.66
2022-08-10T20:25:44.614Z,17.60
2022-08-10T20:28:19.738Z,17.52
2022-08-10T20:30:53.627Z,17.41
2022-08-10T20:33:29.108Z,17.38
2022-08-10T20:36:04.275Z,17.32
2022-08-10T20:38:39.633Z,17.24
2022-08-10T20:41:16.685Z,17.23
2022-08-10T20:44:03.473Z,17.20
2022-08-10T20:46:34.677Z,17.14
2022-08-10T20:49:17.220Z,17.07
2022-08-10T20:51:57.348Z,16.97
2022-08-10T20:54:32.466Z,16.91
2022-08-10T20:57:56.417Z,16.89
2022-08-10T21:00:13.809Z,16.81
2022-08-10T21:02:58.457Z,16.74
2022-08-10T21:05:35.347Z,16.76
2022-08-10T21:08:15.971Z,16.73
2022-08-10T21:11:09.029Z,16.66
2022-08-10T21:13:58.075Z,16.67
2022-08-10T21:16:47.605Z,16.67
2022-08-10T21:19:53.848Z,16.63
2022-08-10T21:22:29.331Z,16.49
2022-08-10T21:25:02.710Z,16.45
2022-08-10T21:28:00.114Z,16.31
2022-08-10T21:30:45.807Z,16.21
2022-08-10T21:33:32.327Z,16.18
2022-08-10T21:36:09.773Z,16.05
2022-08-10T21:38:48.413Z,15.96
2022-08-10T21:41:58.792Z,15.85
2022-08-10T21:45:11.853Z,15.80
2022-08-10T21:48:18.667Z,15.68
2022-08-10T21:51:10.334Z,15.57
2022-08-10T21:54:05.591Z,15.56
2022-08-10T21:56:56.261Z,15.57
2022-08-10T21:59:49.270Z,15.54
2022-08-10T22:05:52.700Z,15.38
2022-08-10T22:08:44.418Z,15.32
2022-08-10T22:11:43.459Z,15.24
2022-08-10T22:14:33.706Z,15.20
2022-08-10T22:18:03.363Z,15.09
2022-08-10T22:20:35.300Z,15.00
2022-08-10T22:24:06.261Z,14.96
2022-08-10T22:27:46.614Z,14.89
2022-08-10T22:30:27.838Z,14.84
2022-08-10T22:31:25.744Z,15.45
2022-08-10T22:33:38.984Z,14.77
2022-08-10T22:36:59.750Z,14.71
2022-08-10T22:40:05.893Z,14.67
2022-08-10T22:43:11.036Z,14.66
2022-08-10T22:46:05.263Z,14.69
2022-08-10T22:48:59.454Z,14.66
2022-08-10T22:51:35.608Z,14.59
2022-08-10T22:54:30.463Z,14.56
2022-08-10T22:57:16.526Z,14.42
2022-08-10T22:59:45.923Z,14.43
2022-08-10T23:07:23.547Z,14.28
2022-08-10T23:09:59.304Z,14.25
2022-08-10T23:12:40.201Z,14.26
2022-08-10T23:15:35.679Z,14.29
2022-08-10T23:18:25.648Z,14.26
2022-08-10T23:20:57.034Z,14.28
2022-08-10T23:23:28.759Z,14.26
2022-08-10T23:25:58.489Z,14.24
2022-08-10T23:28:39.054Z,14.21
2022-08-10T23:31:17.662Z,14.14
2022-08-10T23:34:07.509Z,14.11
2022-08-10T23:36:38.409Z,14.02
2022-08-10T23:39:24.108Z,14.00
2022-08-10T23:42:00.732Z,13.99
2022-08-10T23:44:38.850Z,13.85
2022-08-10T23:47:07.584Z,13.86
2022-08-10T23:49:37.143Z,13.76
2022-08-10T23:52:17.969Z,13.76
2022-08-10T23:54:49.793Z,13.80
2022-08-10T23:57:21.271Z,13.77
2022-08-10T23:59:55.424Z,13.71
